Terminal Aerodrome Forecast
Issued by NWS

Home | Current Version | Previous Version | Text Only | Print | Product List | Glossary On
Versions: 1 2 3 4 5 6 7 8 9 10 11 12 13 14
000
FTUS42 KGSP 292320
TAFAND
TAF
KAND 292320Z 3000/3024 12004KT P6SM FEW045 BKN170
     FM300500 VRB03KT P6SM SCT045 BKN100
     FM301500 03004KT P6SM SCT045 BKN060 PROB30 3017/3021 4SM TSRA
      BKN040CB
     FM302100 09004KT P6SM BKN045=

USA.gov is the U.S. government's official web portal to all federal, state and local government web resources and services.